createdAt,value
2024-04-23T00:01:07.512Z,992.6
2024-04-23T00:11:45.531Z,992.5
2024-04-23T00:17:04.911Z,992.5
2024-04-23T00:27:43.563Z,992.5
2024-04-23T00:33:02.669Z,992.4
2024-04-23T00:43:40.863Z,992.5
2024-04-23T00:59:37.855Z,992.3
2024-04-23T01:10:15.895Z,992.2
2024-04-23T01:15:35.667Z,992.3
2024-04-23T01:26:14.037Z,992.2
2024-04-23T01:42:11.887Z,992.2
2024-04-23T01:52:50.736Z,992.2
2024-04-23T01:58:10.047Z,992.2
2024-04-23T02:08:48.264Z,992.2
2024-04-23T02:24:46.672Z,992.1
2024-04-23T02:35:24.958Z,992
2024-04-23T02:40:44.584Z,992
2024-04-23T02:51:23.474Z,992.1
2024-04-23T02:56:42.668Z,992.2
2024-04-23T03:02:01.972Z,992.2
2024-04-23T03:07:21.962Z,992.2
2024-04-23T03:13:56.178Z,992.1
2024-04-23T03:18:00.174Z,992.1
2024-04-23T03:23:19.829Z,992
2024-04-23T03:33:58.423Z,992
2024-04-23T03:39:17.683Z,992
2024-04-23T03:49:57.145Z,991.9
2024-04-23T04:00:37.167Z,991.8
2024-04-23T04:05:55.982Z,991.8
2024-04-23T04:16:35.661Z,991.8
2024-04-23T04:27:13.985Z,991.7
2024-04-23T04:37:51.847Z,991.8
2024-04-23T04:43:12.045Z,991.8
2024-04-23T04:53:49.156Z,991.7
2024-04-23T05:04:27.610Z,991.8
2024-04-23T05:09:48.149Z,991.9
2024-04-23T05:20:27.070Z,991.9
2024-04-23T05:25:46.911Z,991.8
2024-04-23T05:31:05.904Z,991.7
2024-04-23T05:36:25.192Z,991.8
2024-04-23T05:41:44.904Z,991.7
2024-04-23T05:52:29.554Z,991.7
2024-04-23T06:03:02.587Z,991.7
2024-04-23T06:08:22.272Z,991.7
2024-04-23T06:19:00.737Z,991.7
2024-04-23T06:24:20.059Z,991.7
2024-04-23T06:34:57.961Z,991.7
2024-04-23T06:50:55.696Z,991.6
2024-04-23T07:01:33.924Z,991.5
2024-04-23T07:06:53.180Z,991.4
2024-04-23T07:17:32.224Z,991.3
2024-04-23T07:29:25.518Z,991.2
2024-04-23T07:33:30.844Z,991.2
2024-04-23T07:42:03.854Z,991.1
2024-04-23T07:49:27.287Z,991.2
2024-04-23T08:00:06.227Z,991
2024-04-23T08:05:25.532Z,990.9
2024-04-23T08:16:03.684Z,990.9
2024-04-23T08:27:57.517Z,990.9
2024-04-23T08:32:02.408Z,990.9
2024-04-23T08:42:40.160Z,990.9
2024-04-23T08:47:59.684Z,990.8
2024-04-23T08:58:36.784Z,990.7
2024-04-23T09:09:15.049Z,990.7
2024-04-23T09:14:34.779Z,990.7
2024-04-23T09:21:08.984Z,990.6
2024-04-23T09:25:12.741Z,990.5
2024-04-23T09:30:32.144Z,990.4
2024-04-23T09:41:10.452Z,990.4
2024-04-23T09:46:28.978Z,990.3
2024-04-23T09:57:07.811Z,990.2
2024-04-23T10:07:46.074Z,990
2024-04-23T10:13:05.031Z,989.9
2024-04-23T10:19:39.226Z,989.9
2024-04-23T10:23:45.286Z,989.7
2024-04-23T10:29:04.858Z,989.8
2024-04-23T10:39:42.834Z,989.5
2024-04-23T10:55:38.515Z,989.4
2024-04-23T11:00:57.381Z,989.4
2024-04-23T11:06:17.027Z,989.3
2024-04-23T11:16:55.110Z,989.2
2024-04-23T11:27:32.941Z,989.1
2024-04-23T11:32:52.751Z,989
2024-04-23T11:43:31.554Z,989
2024-04-23T11:48:51.332Z,988.9
2024-04-23T11:59:30.582Z,988.7
2024-04-23T12:04:50.102Z,988.6
2024-04-23T12:15:27.962Z,988.5
2024-04-23T12:31:25.552Z,988.5
2024-04-23T12:42:04.814Z,988.4
2024-04-23T12:47:23.860Z,988.3
2024-04-23T12:58:01.857Z,988.2
2024-04-23T13:03:21.050Z,988.1
2024-04-23T13:13:59.504Z,988
2024-04-23T13:24:37.658Z,987.9
2024-04-23T13:29:57.426Z,987.7
2024-04-23T13:40:35.740Z,987.6
2024-04-23T13:45:55.212Z,987.5
2024-04-23T13:56:33.892Z,987.4
2024-04-23T14:07:13.657Z,987.3
2024-04-23T14:12:32.188Z,987.3
2024-04-23T14:23:10.215Z,987.2
2024-04-23T14:28:29.677Z,987.2
2024-04-23T14:39:09.063Z,987.1
2024-04-23T14:45:02.970Z,987.2
2024-04-23T14:55:41.287Z,987.1
2024-04-23T15:01:00.217Z,987.1
2024-04-23T15:11:38.582Z,987.1
2024-04-23T15:22:16.115Z,987
2024-04-23T15:27:35.715Z,986.9
2024-04-23T15:38:14.750Z,986.9
2024-04-23T15:43:34.270Z,986.9
2024-04-23T15:54:12.266Z,986.9
2024-04-23T15:59:31.760Z,986.8
2024-04-23T16:10:10.713Z,986.7
2024-04-23T16:15:30.177Z,986.7
2024-04-23T16:26:08.298Z,986.6
2024-04-23T16:36:46.326Z,986.6
2024-04-23T16:42:06.729Z,986.6
2024-04-23T16:52:44.342Z,986.6
2024-04-23T16:58:03.313Z,986.5
2024-04-23T17:03:22.168Z,986.5
2024-04-23T17:08:41.614Z,986.5
2024-04-23T17:19:19.266Z,986.5
2024-04-23T17:24:39.036Z,986.5
2024-04-23T17:35:26.355Z,986.4
2024-04-23T17:40:36.149Z,986.5
2024-04-23T17:45:55.184Z,986.4
2024-04-23T18:02:03.458Z,986.4
2024-04-23T18:12:31.719Z,986.5
2024-04-23T18:17:55.265Z,986.5
2024-04-23T18:28:30.077Z,986.5
2024-04-23T18:33:49.486Z,986.4
2024-04-23T18:39:09.642Z,986.4
2024-04-23T18:44:28.338Z,986.5
2024-04-23T18:55:05.886Z,986.6
2024-04-23T19:00:25.175Z,986.6
2024-04-23T19:11:04.815Z,986.6
2024-04-23T19:16:23.433Z,986.6
2024-04-23T19:21:43.637Z,986.6
2024-04-23T19:27:02.546Z,986.7
2024-04-23T19:37:41.195Z,986.7
2024-04-23T19:43:00.430Z,986.7
2024-04-23T19:53:38.260Z,986.6
2024-04-23T19:58:57.776Z,986.7
2024-04-23T20:04:16.560Z,986.7
2024-04-23T20:09:36.043Z,986.6
2024-04-23T20:20:14.682Z,986.5
2024-04-23T20:25:33.951Z,986.5
2024-04-23T20:36:13.529Z,986.4
2024-04-23T20:52:11.208Z,986.4
2024-04-23T20:57:30.059Z,986.4
2024-04-23T21:08:11.025Z,986.3
2024-04-23T21:18:47.690Z,986.2
2024-04-23T21:24:06.846Z,986.2
2024-04-23T21:34:45.938Z,986.2
2024-04-23T21:40:05.424Z,986.2
2024-04-23T21:45:24.076Z,986.2
2024-04-23T21:50:43.395Z,986.1
2024-04-23T22:01:21.488Z,986.2
2024-04-23T22:06:41.823Z,986.1
2024-04-23T22:17:19.129Z,986
2024-04-23T22:22:38.520Z,986.1
2024-04-23T22:33:17.473Z,986.1
2024-04-23T22:43:55.708Z,986
2024-04-23T22:49:15.441Z,986
2024-04-23T22:59:54.690Z,986
2024-04-23T23:05:14.045Z,986
2024-04-23T23:10:34.012Z,985.9
2024-04-23T23:15:52.503Z,985.9
2024-04-23T23:26:31.655Z,985.9
2024-04-23T23:31:49.908Z,985.8
2024-04-23T23:42:27.961Z,985.7
2024-04-23T23:47:47.305Z,985.7
2024-04-23T23:58:25.420Z,985.4
